Time;durP1;ratioP1;P1;durP2;ratioP2;P2;SDS_P1;SDS_P2;PMS_P1;PMS_P2;Temp;Humidity;BMP_temperature;BMP_pressure;BME280_temperature;BME280_humidity;BME280_pressure;Samples;Min_cycle;Max_cycle;Signal;HPM_P1;HPM_P2
2022/07/18 00:03:36;;;;;;;0.68;0.68;;;;;;;20.08;50.97;97784.47;10174415;29;20550;-56
2022/07/18 00:08:56;;;;;;;0.77;0.73;;;;;;;20.07;50.94;97791.78;10174880;29;20064;-56
2022/07/18 00:14:16;;;;;;;0.82;0.70;;;;;;;20.07;50.92;97790.97;10169756;29;20060;-56
2022/07/18 00:19:36;;;;;;;0.75;0.73;;;;;;;20.07;50.86;97789.06;10174235;29;20067;-56
2022/07/18 00:24:55;;;;;;;0.95;0.80;;;;;;;20.07;50.85;97785.53;10174510;29;20138;-56
2022/07/18 00:30:15;;;;;;;1.23;0.80;;;;;;;20.06;50.82;97784.75;10173265;29;20063;-56
2022/07/18 00:35:34;;;;;;;0.75;0.70;;;;;;;20.06;50.70;97787.47;10169009;29;20067;-56
2022/07/18 00:40:54;;;;;;;0.85;0.70;;;;;;;20.06;50.81;97781.25;10173222;29;20551;-57
2022/07/18 00:46:13;;;;;;;0.63;0.60;;;;;;;20.06;50.71;97778.56;10173964;29;20448;-56
2022/07/18 00:51:36;;;;;;;0.65;0.63;;;;;;;20.05;50.68;97782.34;10173535;29;20056;-56
2022/07/18 00:56:55;;;;;;;1.02;0.60;;;;;;;20.05;50.71;97785.06;10172783;29;20420;-56
2022/07/18 01:02:15;;;;;;;1.15;0.80;;;;;;;20.06;50.71;97778.56;10172986;29;20056;-45
2022/07/18 01:07:37;;;;;;;1.42;0.60;;;;;;;20.04;50.68;97784.25;10173136;29;20056;-45
2022/07/18 01:12:57;;;;;;;0.60;0.60;;;;;;;20.04;50.70;97775.34;10173154;29;20131;-47
2022/07/18 01:18:16;;;;;;;0.60;0.60;;;;;;;20.03;50.76;97769.16;10177941;29;20056;-47
2022/07/18 01:23:35;;;;;;;0.95;0.65;;;;;;;20.04;50.70;97769.94;10185437;29;20389;-46
2022/07/18 01:28:55;;;;;;;0.95;0.63;;;;;;;20.03;50.65;97774.56;10172567;29;20063;-45
2022/07/18 01:34:14;;;;;;;0.90;0.52;;;;;;;20.03;50.70;97774.56;10177526;29;20048;-48
2022/07/18 01:39:34;;;;;;;2.17;0.65;;;;;;;20.03;50.70;97779.16;10185270;29;20145;-46
2022/07/18 01:44:53;;;;;;;0.70;0.70;;;;;;;20.04;50.68;97764.53;10179027;29;20060;-47
2022/07/18 01:50:13;;;;;;;0.57;0.57;;;;;;;20.02;50.72;97772.94;10192697;29;20052;-49
2022/07/18 01:55:33;;;;;;;1.63;0.68;;;;;;;20.01;50.48;97778.66;10169587;29;20116;-45
2022/07/18 02:00:52;;;;;;;0.93;0.65;;;;;;;20.02;50.50;97772.94;10179730;29;20059;-46
2022/07/18 02:06:11;;;;;;;0.70;0.60;;;;;;;20.01;50.59;97765.91;10192375;29;20059;-45
2022/07/18 02:11:31;;;;;;;0.85;0.70;;;;;;;20.00;50.39;97769.75;10167780;29;20055;-47
2022/07/18 02:16:50;;;;;;;1.33;0.80;;;;;;;20.01;50.42;97771.31;10179187;29;20099;-46
2022/07/18 02:22:09;;;;;;;0.70;0.70;;;;;;;20.00;50.41;97771.66;10191590;29;20052;-48
2022/07/18 02:27:28;;;;;;;1.10;0.70;;;;;;;20.00;50.37;97768.94;10178498;29;20056;-45
2022/07/18 02:32:48;;;;;;;0.85;0.70;;;;;;;19.99;50.42;97772.75;10170786;29;20060;-47
2022/07/18 02:38:07;;;;;;;1.00;0.70;;;;;;;20.00;50.36;97777.06;10191137;29;20051;-46
2022/07/18 02:43:27;;;;;;;1.25;0.77;;;;;;;20.00;50.31;97779.78;10177618;29;20519;-46
2022/07/18 02:48:46;;;;;;;1.05;0.70;;;;;;;19.99;50.30;97780.84;10177743;29;20067;-45
2022/07/18 02:54:05;;;;;;;0.73;0.60;;;;;;;19.99;50.32;97778.16;10181363;29;20056;-47
2022/07/18 02:59:26;;;;;;;1.02;0.70;;;;;;;19.99;50.35;97767.34;10177530;29;20067;-46
2022/07/18 03:04:45;;;;;;;1.58;0.90;;;;;;;19.98;50.41;97774.66;10176893;29;20115;-46
2022/07/18 03:10:06;;;;;;;1.60;0.70;;;;;;;19.99;50.29;97780.84;10176468;29;20067;-46
2022/07/18 03:15:25;;;;;;;0.70;0.60;;;;;;;19.98;50.43;97779.28;10189424;29;20465;-47
2022/07/18 03:20:44;;;;;;;1.08;0.80;;;;;;;19.98;50.36;97773.88;10176896;29;20060;-46
2022/07/18 03:26:04;;;;;;;1.00;0.90;;;;;;;19.97;50.41;97770.34;10175775;29;20428;-46
2022/07/18 03:31:24;;;;;;;1.17;0.85;;;;;;;19.97;50.36;97769.53;10175609;29;20072;-45
2022/07/18 03:36:43;;;;;;;0.70;0.70;;;;;;;19.96;50.40;97766.03;10176399;29;20079;-46
2022/07/18 03:42:02;;;;;;;1.08;0.85;;;;;;;19.95;50.44;97772.53;10188472;29;20044;-45
2022/07/18 03:47:22;;;;;;;0.80;0.68;;;;;;;19.95;50.39;97770.66;10165319;29;20048;-47
2022/07/18 03:52:41;;;;;;;0.95;0.77;;;;;;;19.96;50.38;97776.88;10188292;29;20048;-46
2022/07/18 03:58:00;;;;;;;0.70;0.70;;;;;;;19.95;50.33;97773.38;10175468;29;20087;-45
2022/07/18 04:03:19;;;;;;;1.75;1.08;;;;;;;19.97;50.30;97780.38;10187799;29;20112;-47
2022/07/18 04:08:39;;;;;;;1.35;0.90;;;;;;;19.98;50.24;97771.16;10175948;29;20064;-46
2022/07/18 04:13:58;;;;;;;1.17;0.90;;;;;;;19.99;50.24;97767.34;10174456;29;20056;-46
2022/07/18 04:19:18;;;;;;;1.15;0.80;;;;;;;20.00;50.13;97769.75;10160149;29;20063;-46
2022/07/18 04:24:37;;;;;;;0.80;0.75;;;;;;;20.02;50.09;97766.75;10163056;29;20064;-46
2022/07/18 04:29:57;;;;;;;0.95;0.70;;;;;;;20.04;50.23;97764.53;10173745;29;20056;-45
2022/07/18 04:35:16;;;;;;;1.00;0.90;;;;;;;20.07;50.27;97770.13;10171649;29;20064;-47
2022/07/18 04:40:36;;;;;;;1.10;0.90;;;;;;;20.08;50.22;97760.91;10173157;29;20065;-47
2022/07/18 04:45:56;;;;;;;1.48;1.10;;;;;;;20.08;50.23;97750.09;10173700;29;20056;-47
2022/07/18 04:51:15;;;;;;;1.80;1.17;;;;;;;20.08;50.26;97754.69;10173875;29;20064;-46
2022/07/18 04:56:34;;;;;;;1.80;1.52;;;;;;;20.08;50.29;97762.81;10185768;29;20060;-47
2022/07/18 05:01:54;;;;;;;1.75;1.35;;;;;;;20.07;50.27;97753.91;10182977;29;20063;-48
2022/07/18 05:07:13;;;;;;;1.67;1.40;;;;;;;20.08;50.50;97754.69;10173194;29;20444;-45
2022/07/18 05:12:37;;;;;;;2.20;1.30;;;;;;;20.06;50.36;97752.28;10172879;29;20111;-48
2022/07/18 05:17:57;;;;;;;1.30;1.20;;;;;;;20.07;50.45;97763.91;10176075;29;20526;-46
2022/07/18 05:23:16;;;;;;;1.98;1.40;;;;;;;20.06;50.45;97763.13;10184344;29;20458;-46
2022/07/18 05:28:35;;;;;;;1.67;1.33;;;;;;;20.05;50.50;97758.00;10189676;29;20056;-45
2022/07/18 05:33:55;;;;;;;1.65;1.20;;;;;;;20.04;50.61;97765.31;10178579;29;20068;-47
2022/07/18 05:39:14;;;;;;;1.88;1.13;;;;;;;20.04;50.65;97759.13;10169174;29;20064;-48
2022/07/18 05:44:33;;;;;;;2.35;1.33;;;;;;;20.03;50.70;97758.34;10179840;29;20067;-46
2022/07/18 05:49:52;;;;;;;1.75;1.35;;;;;;;20.05;50.77;97752.59;10180236;29;20056;-47
2022/07/18 05:55:12;;;;;;;1.30;1.10;;;;;;;20.04;50.88;97751.00;10192165;29;20052;-47
2022/07/18 06:00:31;;;;;;;1.30;1.20;;;;;;;20.04;50.88;97745.59;10170338;29;20127;-46
2022/07/18 06:05:51;;;;;;;1.48;1.20;;;;;;;20.04;50.90;97753.72;10179724;29;20060;-46
2022/07/18 06:11:10;;;;;;;1.75;1.30;;;;;;;20.03;50.97;97752.91;10189625;29;20056;-46
2022/07/18 06:16:30;;;;;;;1.33;1.23;;;;;;;20.03;51.06;97747.50;10179217;29;20060;-48
2022/07/18 06:21:50;;;;;;;1.75;1.10;;;;;;;20.03;50.93;97746.69;10178948;29;20063;-47
2022/07/18 06:27:09;;;;;;;3.53;1.13;;;;;;;20.04;51.08;97761.81;10178084;29;20063;-45
2022/07/18 06:32:28;;;;;;;2.38;1.00;;;;;;;20.04;51.17;97759.13;10175926;29;20530;-48
2022/07/18 06:37:48;;;;;;;1.67;1.00;;;;;;;20.03;51.01;97766.44;10189965;29;20048;-46
2022/07/18 06:43:07;;;;;;;2.22;1.38;;;;;;;20.03;51.15;97763.75;10178287;29;20059;-46
2022/07/18 06:48:28;;;;;;;1.80;1.25;;;;;;;20.05;51.13;97755.31;10177470;29;20064;-47
2022/07/18 06:53:48;;;;;;;1.63;1.17;;;;;;;20.04;51.18;97761.81;10188215;29;20056;-47
2022/07/18 06:59:07;;;;;;;1.23;0.90;;;;;;;20.04;51.20;97767.25;10177666;29;20052;-46
2022/07/18 07:04:27;;;;;;;1.55;1.20;;;;;;;20.04;51.17;97764.53;10190136;29;20519;-48
2022/07/18 07:09:46;;;;;;;2.40;1.25;;;;;;;20.04;51.19;97759.13;10177162;29;20056;-45
2022/07/18 07:15:06;;;;;;;1.20;1.00;;;;;;;20.04;51.19;97764.53;10177265;29;20131;-46
2022/07/18 07:20:25;;;;;;;1.50;1.13;;;;;;;20.05;51.24;97764.25;10176831;29;20064;-48
2022/07/18 07:25:44;;;;;;;1.25;1.02;;;;;;;20.05;51.25;97760.72;10174172;29;20421;-45
2022/07/18 07:31:05;;;;;;;1.00;0.90;;;;;;;20.04;51.29;97764.53;10164567;29;20071;-47
2022/07/18 07:36:24;;;;;;;1.27;1.15;;;;;;;20.06;51.16;97770.44;10188568;29;20115;-48
2022/07/18 07:41:44;;;;;;;1.27;1.10;;;;;;;20.05;51.23;97760.72;10175593;29;20136;-47
2022/07/18 07:47:03;;;;;;;1.95;1.13;;;;;;;20.04;51.23;97754.50;10175735;29;20060;-47
2022/07/18 07:52:27;;;;;;;1.35;1.20;;;;;;;20.04;51.32;97759.13;10176325;29;20064;-46
2022/07/18 07:57:47;;;;;;;1.20;1.10;;;;;;;20.06;51.34;97756.91;10175536;29;20059;-46
2022/07/18 08:03:07;;;;;;;1.00;0.90;;;;;;;20.06;51.23;97754.22;10175227;29;20056;-46
2022/07/18 08:08:27;;;;;;;1.27;1.00;;;;;;;20.06;51.23;97756.91;10167945;29;20524;-46
2022/07/18 08:13:46;;;;;;;1.20;1.10;;;;;;;20.06;51.18;97754.22;10174363;29;20048;-46
2022/07/18 08:19:06;;;;;;;0.98;0.90;;;;;;;20.06;51.18;97762.31;10186869;29;20048;-45
2022/07/18 08:24:25;;;;;;;1.10;1.00;;;;;;;20.06;51.23;97757.72;10186834;29;20048;-46
2022/07/18 08:29:45;;;;;;;1.05;0.93;;;;;;;20.06;51.29;97752.28;10173951;29;20063;-46
2022/07/18 08:35:04;;;;;;;1.67;1.10;;;;;;;20.07;51.33;97750.38;10186248;29;20441;-47
2022/07/18 08:40:25;;;;;;;0.82;0.80;;;;;;;20.07;51.37;97753.09;10174083;29;20060;-47
2022/07/18 08:45:45;;;;;;;1.27;0.88;;;;;;;20.07;51.33;97753.09;10172944;29;20055;-48
2022/07/18 08:51:05;;;;;;;1.40;1.00;;;;;;;20.08;51.31;97754.69;10171850;29;20060;-48
2022/07/18 08:56:25;;;;;;;1.00;0.88;;;;;;;20.05;51.26;97750.72;10173442;29;20078;-46
2022/07/18 09:01:44;;;;;;;1.77;0.95;;;;;;;20.07;51.27;97751.22;10173278;29;20067;-46
2022/07/18 09:07:04;;;;;;;1.23;1.08;;;;;;;20.07;51.25;97750.38;10173246;29;20048;-47
2022/07/18 09:12:30;;;;;;;0.75;0.75;;;;;;;20.08;51.36;97739.25;10173203;29;20060;-47
2022/07/18 09:17:50;;;;;;;0.98;0.85;;;;;;;20.08;51.35;97738.47;10172051;29;20056;-46
2022/07/18 09:23:13;;;;;;;1.30;1.20;;;;;;;20.09;51.34;97740.06;10172911;29;20064;-46
2022/07/18 09:28:50;;;;;;;1.10;1.00;;;;;;;20.08;51.22;97743.88;10172560;29;20062;-46
2022/07/18 09:34:09;;;;;;;0.90;0.80;;;;;;;20.09;51.34;97740.06;10172304;29;20491;-47
2022/07/18 09:39:29;;;;;;;0.82;0.73;;;;;;;20.10;51.34;97747.09;10172837;29;20052;-46
2022/07/18 09:44:59;;;;;;;2.03;0.90;;;;;;;20.10;51.40;97747.09;10173123;29;20428;-46
2022/07/18 09:50:24;;;;;;;1.27;0.93;;;;;;;20.10;51.33;97752.50;10184186;29;20440;-46
2022/07/18 09:55:47;;;;;;;0.93;0.80;;;;;;;20.10;51.33;97744.38;10172717;29;20060;-48
2022/07/18 10:01:09;;;;;;;1.10;1.00;;;;;;;20.10;51.35;97745.16;10172124;29;20059;-47
2022/07/18 10:06:28;;;;;;;0.88;0.88;;;;;;;20.09;51.35;97735.47;10191658;29;20048;-45
2022/07/18 10:11:48;;;;;;;1.20;0.98;;;;;;;20.09;51.45;97730.06;10168561;29;20060;-46
2022/07/18 10:17:07;;;;;;;1.10;1.00;;;;;;;20.11;51.42;97733.25;10179165;29;20052;-47
2022/07/18 10:22:27;;;;;;;1.00;0.90;;;;;;;20.10;51.35;97730.84;10179199;29;20060;-45
2022/07/18 10:27:53;;;;;;;0.98;0.88;;;;;;;20.11;51.44;97727.03;10164133;29;20060;-46
2022/07/18 10:33:38;;;;;;;1.08;0.77;;;;;;;20.11;51.50;97718.91;10178229;29;20060;-46
2022/07/18 10:39:19;;;;;;;0.98;0.90;;;;;;;20.12;51.22;97715.13;10188160;29;20111;-47
2022/07/18 10:44:40;;;;;;;0.73;0.68;;;;;;;20.10;51.13;97722.72;10190606;29;20060;-47
2022/07/18 10:50:00;;;;;;;1.15;0.90;;;;;;;20.08;51.28;97717.63;10181800;29;20489;-46
2022/07/18 10:55:22;;;;;;;1.38;0.80;;;;;;;20.08;50.98;97712.22;10177483;29;20063;-46
2022/07/18 11:00:43;;;;;;;0.70;0.70;;;;;;;20.08;51.43;97703.31;10177603;29;20052;-46
2022/07/18 11:06:03;;;;;;;0.80;0.80;;;;;;;20.09;51.41;97707.59;10177708;29;20535;-46
2022/07/18 11:11:22;;;;;;;0.93;0.82;;;;;;;20.07;50.97;97699.81;10176631;29;20539;-46
2022/07/18 11:17:04;;;;;;;1.70;0.95;;;;;;;20.08;51.47;97695.97;10165334;29;20063;-46
2022/07/18 11:22:24;;;;;;;1.58;1.00;;;;;;;20.09;51.48;97688.66;10176711;29;20090;-45
2022/07/18 11:27:45;;;;;;;1.00;0.90;;;;;;;20.08;51.43;97687.06;10176121;29;20112;-45
2022/07/18 11:33:05;;;;;;;0.85;0.85;;;;;;;20.10;51.66;97682.16;10176124;29;20063;-46
2022/07/18 11:38:24;;;;;;;0.90;0.90;;;;;;;20.10;51.63;97682.16;10176041;29;20064;-46
2022/07/18 11:43:45;;;;;;;0.75;0.75;;;;;;;20.10;51.69;97677.53;10188457;29;20056;-46
2022/07/18 11:49:05;;;;;;;1.25;0.70;;;;;;;20.10;51.64;97677.53;10168111;29;20060;-45
2022/07/18 11:54:25;;;;;;;0.60;0.60;;;;;;;20.12;51.65;97671.84;10188525;29;20064;-47
2022/07/18 11:59:44;;;;;;;0.98;0.70;;;;;;;20.12;51.70;97669.13;10187941;29;20060;-47
2022/07/18 12:05:04;;;;;;;0.82;0.70;;;;;;;20.12;51.79;97671.84;10174708;29;20060;-46
2022/07/18 12:10:24;;;;;;;0.88;0.70;;;;;;;20.13;51.79;97662.59;10174630;29;20063;-45
2022/07/18 12:15:43;;;;;;;0.93;0.85;;;;;;;20.12;51.91;97664.50;10174865;29;20052;-48
2022/07/18 12:21:08;;;;;;;0.70;0.70;;;;;;;20.12;51.79;97659.09;10174803;29;20060;-44
2022/07/18 12:26:34;;;;;;;1.20;0.70;;;;;;;20.13;51.91;97651.78;10176680;29;20505;-46
2022/07/18 12:31:53;;;;;;;1.00;0.90;;;;;;;20.14;51.81;97650.69;10163340;29;20060;-46
2022/07/18 12:37:13;;;;;;;1.30;0.82;;;;;;;20.14;51.92;97656.88;10211932;29;20408;-47
2022/07/18 12:42:38;;;;;;;1.00;0.80;;;;;;;20.14;51.78;97654.19;10180482;29;20059;-46
2022/07/18 12:47:58;;;;;;;1.10;0.70;;;;;;;20.15;51.78;97644.19;10165868;29;20060;-46
2022/07/18 12:53:18;;;;;;;0.90;0.80;;;;;;;20.16;51.97;97640.34;10173793;29;20128;-46
2022/07/18 12:58:37;;;;;;;0.70;0.60;;;;;;;20.14;51.87;97635.25;10173730;29;20060;-46
2022/07/18 13:03:56;;;;;;;0.57;0.57;;;;;;;20.18;51.89;97640.06;10163509;29;20539;-46
2022/07/18 13:09:16;;;;;;;0.60;0.60;;;;;;;20.18;51.91;97631.94;10171502;29;20407;-46
2022/07/18 13:14:35;;;;;;;1.40;0.70;;;;;;;20.18;51.94;97635.44;10180565;29;20060;-45
2022/07/18 13:19:54;;;;;;;1.13;0.80;;;;;;;20.18;52.16;97634.63;10204214;29;20066;-47
2022/07/18 13:25:13;;;;;;;0.75;0.65;;;;;;;20.18;52.10;97629.22;10172909;29;20067;-45
2022/07/18 13:30:33;;;;;;;0.70;0.70;;;;;;;20.17;52.14;97623.03;10172975;29;20424;-46
2022/07/18 13:35:52;;;;;;;0.60;0.60;;;;;;;20.20;52.07;97621.59;10161202;29;20092;-46
2022/07/18 13:41:12;;;;;;;0.93;0.60;;;;;;;20.19;52.13;97615.41;10179696;29;20067;-46
2022/07/18 13:46:32;;;;;;;0.60;0.60;;;;;;;20.19;52.14;97614.56;10180448;29;20060;-46
2022/07/18 13:51:51;;;;;;;0.70;0.60;;;;;;;20.20;52.19;97610.78;10179594;29;20060;-44
2022/07/18 13:57:10;;;;;;;0.70;0.68;;;;;;;20.19;52.07;97604.59;10180006;29;20052;-46
2022/07/18 14:02:33;;;;;;;0.90;0.70;;;;;;;20.19;52.19;97601.88;10192374;29;20048;-47
2022/07/18 14:07:53;;;;;;;2.22;0.70;;;;;;;20.21;52.17;97606.94;10179662;29;20182;-47
2022/07/18 14:13:13;;;;;;;0.80;0.70;;;;;;;20.20;52.15;97611.56;10191944;29;20080;-47
2022/07/18 14:18:32;;;;;;;0.73;0.70;;;;;;;20.21;52.29;97596.94;10191605;29;20555;-47
2022/07/18 14:23:51;;;;;;;1.02;0.52;;;;;;;20.20;52.24;97600.75;10178005;29;20512;-46
2022/07/18 14:29:10;;;;;;;1.65;0.60;;;;;;;20.22;52.16;97595.03;10185943;29;20512;-48
2022/07/18 14:34:30;;;;;;;0.63;0.57;;;;;;;20.23;52.18;97588.50;10169657;29;20064;-46
2022/07/18 14:39:49;;;;;;;0.55;0.55;;;;;;;20.22;52.31;97590.41;10178488;29;20075;-47
2022/07/18 14:45:09;;;;;;;0.60;0.60;;;;;;;20.22;52.24;97579.59;10178317;29;20071;-47
2022/07/18 14:50:28;;;;;;;0.57;0.57;;;;;;;20.23;52.36;97594.72;10165272;29;20056;-45
2022/07/18 14:55:48;;;;;;;1.30;0.73;;;;;;;20.23;52.44;97583.09;10177083;29;20063;-45
2022/07/18 15:01:07;;;;;;;0.82;0.75;;;;;;;20.23;52.31;97577.69;10188550;29;20062;-48
2022/07/18 15:06:26;;;;;;;0.77;0.77;;;;;;;20.23;52.33;97583.91;10177844;29;20071;-48
2022/07/18 15:11:46;;;;;;;0.60;0.60;;;;;;;20.23;52.38;97575.78;10177532;29;20052;-45
2022/07/18 15:17:05;;;;;;;1.10;0.77;;;;;;;20.23;52.44;97566.84;10177097;29;20048;-45
2022/07/18 15:22:25;;;;;;;0.60;0.60;;;;;;;20.23;52.37;97578.50;10176568;29;20064;-47
2022/07/18 15:27:45;;;;;;;0.70;0.50;;;;;;;20.22;52.42;97568.78;10164471;29;20056;-45
2022/07/18 15:33:04;;;;;;;2.05;0.70;;;;;;;20.23;52.47;97567.69;10175743;29;20071;-44
2022/07/18 15:38:24;;;;;;;0.70;0.70;;;;;;;20.23;52.38;97564.97;10175676;29;20536;-45
2022/07/18 15:43:43;;;;;;;1.40;0.70;;;;;;;20.23;52.43;97564.16;10176165;29;20060;-48
2022/07/18 15:49:03;;;;;;;1.25;0.60;;;;;;;20.24;52.40;97566.56;10178321;29;20085;-48
2022/07/18 15:54:23;;;;;;;0.63;0.55;;;;;;;20.24;52.41;97560.34;10174722;29;20091;-44
2022/07/18 15:59:42;;;;;;;1.35;0.70;;;;;;;20.23;52.41;97556.84;10172737;29;20056;-47
2022/07/18 16:05:04;;;;;;;1.02;0.60;;;;;;;20.24;52.37;97553.03;10187962;29;20441;-46
2022/07/18 16:10:23;;;;;;;1.08;0.65;;;;;;;20.23;52.41;97546.03;10173916;29;20063;-46
2022/07/18 16:15:43;;;;;;;0.63;0.60;;;;;;;20.22;50.95;97540.94;10200257;29;20052;-45
2022/07/18 16:21:03;;;;;;;0.80;0.60;;;;;;;20.19;52.13;97538.81;10174791;29;20059;-47
2022/07/18 16:26:22;;;;;;;0.63;0.50;;;;;;;20.19;52.38;97528.84;10164282;29;20060;-47
2022/07/18 16:31:42;;;;;;;0.95;0.70;;;;;;;20.15;51.79;97517.81;10172115;29;20071;-46
2022/07/18 16:37:01;;;;;;;0.75;0.70;;;;;;;20.18;52.34;97529.13;10185026;29;20055;-46
2022/07/18 16:42:21;;;;;;;0.73;0.60;;;;;;;20.18;51.57;97512.91;10178623;29;20056;-46
2022/07/18 16:47:41;;;;;;;0.88;0.60;;;;;;;20.15;52.44;97511.63;10186385;29;20530;-47
2022/07/18 16:53:00;;;;;;;1.30;0.63;;;;;;;20.18;52.55;97519.09;10186141;29;20048;-46
2022/07/18 16:58:20;;;;;;;1.38;0.90;;;;;;;20.17;52.68;97517.53;10161003;29;20527;-46
2022/07/18 17:03:40;;;;;;;4.35;1.27;;;;;;;20.17;53.08;97524.81;10173553;29;20063;-49
2022/07/18 17:08:59;;;;;;;2.28;1.00;;;;;;;20.16;52.95;97513.19;10173247;29;20464;-46
2022/07/18 17:14:19;;;;;;;1.08;0.82;;;;;;;20.17;53.42;97514.00;10172969;29;20056;-46
2022/07/18 17:19:39;;;;;;;3.03;1.02;;;;;;;20.15;52.24;97507.00;10162815;29;20067;-47
2022/07/18 17:25:00;;;;;;;2.03;0.98;;;;;;;20.15;53.33;97508.91;10172878;29;20067;-46
2022/07/18 17:30:19;;;;;;;1.10;0.80;;;;;;;20.19;53.26;97514.47;10172514;29;20056;-45
2022/07/18 17:35:39;;;;;;;2.15;0.70;;;;;;;20.17;53.24;97505.88;10171984;29;20064;-45
2022/07/18 17:40:59;;;;;;;2.00;0.98;;;;;;;20.18;53.48;97511.00;10176355;29;20523;-49
2022/07/18 17:46:22;;;;;;;1.05;0.85;;;;;;;20.20;53.89;97508.78;10172298;29;20065;-48
2022/07/18 17:51:42;;;;;;;3.92;1.10;;;;;;;20.19;53.74;97517.19;10184885;29;20428;-45
2022/07/18 17:57:02;;;;;;;2.80;1.10;;;;;;;20.19;54.17;97517.19;10158365;29;20056;-47
2022/07/18 18:02:22;;;;;;;5.30;1.27;;;;;;;20.17;53.99;97517.53;10172330;29;20056;-46
2022/07/18 18:07:41;;;;;;;2.88;1.00;;;;;;;20.17;54.07;97517.53;10184441;29;20044;-46
2022/07/18 18:13:01;;;;;;;3.45;1.02;;;;;;;20.17;53.79;97514.00;10171572;29;20051;-53
2022/07/18 18:18:20;;;;;;;5.88;1.20;;;;;;;20.18;54.53;97511.00;10171721;29;20056;-55
2022/07/18 18:23:39;;;;;;;5.50;1.40;;;;;;;20.19;54.66;97509.06;10185551;29;20060;-58
2022/07/18 18:28:59;;;;;;;5.32;1.42;;;;;;;20.17;55.20;97514.00;10178007;29;20056;-46
2022/07/18 18:34:18;;;;;;;3.72;1.63;;;;;;;20.15;54.80;97515.13;10176611;29;20059;-44
2022/07/18 18:39:40;;;;;;;1.70;1.40;;;;;;;20.16;54.57;97521.31;10178513;29;20056;-51
2022/07/18 18:45:00;;;;;;;3.38;1.58;;;;;;;20.17;54.12;97519.41;10178480;29;20056;-52
2022/07/18 18:50:19;;;;;;;3.53;1.90;;;;;;;20.14;53.97;97518.13;10191159;29;20485;-58
2022/07/18 18:55:38;;;;;;;6.47;1.60;;;;;;;20.14;54.03;97523.53;10177873;29;20052;-53
2022/07/18 19:00:58;;;;;;;4.70;1.70;;;;;;;20.13;53.88;97524.63;10176722;29;20048;-59
2022/07/18 19:06:18;;;;;;;4.43;1.70;;;;;;;20.14;53.58;97539.78;10185403;29;20052;-57
2022/07/18 19:11:37;;;;;;;2.55;1.58;;;;;;;20.12;53.47;97533.88;10179024;29;20048;-54
2022/07/18 19:16:56;;;;;;;8.68;1.48;;;;;;;20.12;53.26;97526.56;10177147;29;20056;-45
2022/07/18 19:22:16;;;;;;;5.13;1.80;;;;;;;20.15;53.21;97528.66;10176692;29;20417;-46
2022/07/18 19:27:35;;;;;;;6.53;1.67;;;;;;;20.18;53.23;97521.00;10188134;29;20500;-46
2022/07/18 19:32:54;;;;;;;2.92;1.77;;;;;;;20.15;53.25;97528.66;10149961;29;20056;-48
2022/07/18 19:38:14;;;;;;;4.78;1.98;;;;;;;20.15;53.28;97533.25;10188443;29;20564;-47
2022/07/18 19:43:36;;;;;;;6.45;1.80;;;;;;;20.15;53.22;97544.09;10176289;29;20060;-45
2022/07/18 19:48:55;;;;;;;2.60;1.60;;;;;;;20.16;53.33;97529.44;10164333;29;20052;-46
2022/07/18 19:54:15;;;;;;;3.22;1.50;;;;;;;20.16;53.31;97521.31;10188373;29;20063;-46
2022/07/18 19:59:35;;;;;;;4.60;1.80;;;;;;;20.15;53.27;97522.44;10162064;29;20067;-47
2022/07/18 20:04:54;;;;;;;1.92;1.50;;;;;;;20.16;53.22;97515.91;10175894;29;20052;-44
2022/07/18 20:10:14;;;;;;;4.65;1.98;;;;;;;20.15;53.26;97517.03;10175257;29;20059;-45
2022/07/18 20:15:35;;;;;;;2.40;1.55;;;;;;;20.15;53.26;97522.44;10174513;29;20070;-46
2022/07/18 20:20:54;;;;;;;4.85;1.80;;;;;;;20.15;53.22;97528.66;10173645;29;20060;-46
2022/07/18 20:26:13;;;;;;;2.13;1.70;;;;;;;20.15;53.15;97527.84;10163550;29;20067;-45
2022/07/18 20:31:32;;;;;;;3.03;1.95;;;;;;;20.15;53.21;97517.03;10173710;29;20123;-45
2022/07/18 20:36:52;;;;;;;2.63;1.80;;;;;;;20.14;53.12;97516.22;10173562;29;20056;-45
2022/07/18 20:42:11;;;;;;;3.17;1.80;;;;;;;20.15;53.09;97517.81;10186389;29;20048;-47
2022/07/18 20:47:31;;;;;;;4.28;1.73;;;;;;;20.14;52.98;97520.84;10186726;29;20048;-45
2022/07/18 20:52:53;;;;;;;4.18;1.75;;;;;;;20.14;52.92;97518.91;10173733;29;20059;-45
2022/07/18 20:58:13;;;;;;;3.65;1.80;;;;;;;20.14;52.85;97521.63;10182898;29;20060;-46
2022/07/18 21:03:32;;;;;;;6.32;1.60;;;;;;;20.14;52.85;97521.63;10173246;29;20056;-48
2022/07/18 21:08:51;;;;;;;3.30;1.80;;;;;;;20.17;52.84;97514.00;10185897;29;20056;-46
2022/07/18 21:19:49;;;;;;;2.53;1.70;;;;;;;20.15;52.94;97511.63;10172816;29;20052;-47
2022/07/18 21:25:09;;;;;;;3.63;1.80;;;;;;;20.15;52.81;97509.72;10172749;29;20437;-46
2022/07/18 21:30:29;;;;;;;3.08;1.92;;;;;;;20.15;52.73;97514.31;10172282;29;20116;-45
2022/07/18 21:35:49;;;;;;;4.20;1.55;;;;;;;20.15;52.52;97506.22;10164723;29;20096;-45
2022/07/18 21:41:08;;;;;;;2.85;1.40;;;;;;;20.14;52.22;97512.72;10172419;29;20103;-45
2022/07/18 21:46:27;;;;;;;1.80;1.40;;;;;;;20.14;52.28;97518.91;10172467;29;20164;-46
2022/07/18 21:51:48;;;;;;;2.53;1.60;;;;;;;20.14;52.16;97520.84;10170783;29;20061;-45
2022/07/18 21:57:07;;;;;;;2.53;1.70;;;;;;;20.14;51.94;97520.84;10159849;29;20060;-47
2022/07/18 22:02:26;;;;;;;1.80;1.55;;;;;;;20.14;52.17;97520.84;10191903;29;20507;-48
2022/07/18 22:07:46;;;;;;;3.17;1.77;;;;;;;20.14;52.24;97515.44;10192165;29;20060;-45
2022/07/18 22:13:05;;;;;;;3.28;1.50;;;;;;;20.14;52.25;97510.00;10192527;29;20064;-47
2022/07/18 22:18:24;;;;;;;4.90;1.50;;;;;;;20.12;52.09;97504.91;10181702;29;20052;-46
2022/07/18 22:23:43;;;;;;;3.10;1.70;;;;;;;20.12;51.89;97507.63;10191670;29;20059;-47
2022/07/18 22:29:03;;;;;;;2.20;1.45;;;;;;;20.12;51.49;97506.81;10186636;29;20408;-47
2022/07/18 22:34:23;;;;;;;4.00;1.58;;;;;;;20.10;51.47;97507.13;10168613;29;20075;-46
2022/07/18 22:39:42;;;;;;;2.67;1.50;;;;;;;20.10;51.28;97503.63;10178747;29;20055;-46
2022/07/18 22:45:02;;;;;;;1.52;1.42;;;;;;;20.10;51.21;97514.44;10177865;29;20056;-47
2022/07/18 22:50:22;;;;;;;2.53;1.50;;;;;;;20.09;50.98;97508.25;10187019;29;20048;-48
2022/07/18 22:55:42;;;;;;;3.45;1.83;;;;;;;20.09;50.75;97502.03;10178491;29;20103;-44
2022/07/18 23:01:02;;;;;;;3.13;1.70;;;;;;;20.08;50.66;97495.81;10198517;29;20055;-48
2022/07/18 23:06:21;;;;;;;2.55;1.50;;;;;;;20.08;50.72;97498.53;10165675;29;20060;-46
2022/07/18 23:11:40;;;;;;;3.70;1.60;;;;;;;20.09;50.65;97512.84;10189725;29;20501;-46
2022/07/18 23:17:00;;;;;;;2.20;1.67;;;;;;;20.08;50.78;97505.84;10176795;29;20060;-47
2022/07/18 23:22:20;;;;;;;2.97;1.55;;;;;;;20.08;50.76;97500.44;10189578;29;20052;-46
2022/07/18 23:27:39;;;;;;;2.75;1.60;;;;;;;20.08;50.69;97498.53;10196915;29;20056;-47
2022/07/18 23:32:59;;;;;;;2.60;1.60;;;;;;;20.07;50.63;97507.75;10191218;29;20056;-46
2022/07/18 23:38:18;;;;;;;3.72;1.70;;;;;;;20.06;50.71;97502.66;10176621;29;20060;-45
2022/07/18 23:43:37;;;;;;;3.22;1.80;;;;;;;20.06;50.75;97497.25;10176479;29;20111;-45
2022/07/18 23:48:57;;;;;;;2.50;1.80;;;;;;;20.05;50.92;97499.16;10162349;29;20052;-45
2022/07/18 23:54:16;;;;;;;3.10;2.20;;;;;;;20.06;50.92;97491.84;10188055;29;20060;-47
2022/07/18 23:59:36;;;;;;;2.78;1.88;;;;;;;20.05;50.96;97491.06;10175750;29;20119;-46
